sensor_id;sensor_type;location;lat;lon;timestamp;P1;durP1;ratioP1;P2;durP2;ratioP2
39728;SDS011;25402;42.004;23.088;2023-05-10T00:01:56;3.75;;;1.60;;
39728;SDS011;25402;42.004;23.088;2023-05-10T00:04:25;2.30;;;1.48;;
39728;SDS011;25402;42.004;23.088;2023-05-10T00:06:53;4.50;;;1.75;;
39728;SDS011;25402;42.004;23.088;2023-05-10T00:09:20;1.60;;;1.50;;
39728;SDS011;25402;42.004;23.088;2023-05-10T00:11:48;2.40;;;1.90;;
39728;SDS011;25402;42.004;23.088;2023-05-10T00:14:15;4.18;;;1.70;;
39728;SDS011;25402;42.004;23.088;2023-05-10T00:16:43;4.05;;;1.80;;
39728;SDS011;25402;42.004;23.088;2023-05-10T00:19:10;1.65;;;1.48;;
39728;SDS011;25402;42.004;23.088;2023-05-10T00:21:37;2.40;;;1.77;;
39728;SDS011;25402;42.004;23.088;2023-05-10T00:24:04;3.92;;;1.85;;
39728;SDS011;25402;42.004;23.088;2023-05-10T00:26:31;3.53;;;1.75;;
39728;SDS011;25402;42.004;23.088;2023-05-10T00:28:59;4.13;;;1.70;;
39728;SDS011;25402;42.004;23.088;2023-05-10T00:31:26;3.05;;;1.90;;
39728;SDS011;25402;42.004;23.088;2023-05-10T00:33:54;2.67;;;1.63;;
39728;SDS011;25402;42.004;23.088;2023-05-10T00:36:21;3.50;;;1.60;;
39728;SDS011;25402;42.004;23.088;2023-05-10T00:38:48;3.22;;;1.90;;
39728;SDS011;25402;42.004;23.088;2023-05-10T00:41:15;3.83;;;1.98;;
39728;SDS011;25402;42.004;23.088;2023-05-10T00:43:42;2.10;;;1.75;;
39728;SDS011;25402;42.004;23.088;2023-05-10T00:46:10;12.30;;;2.22;;
39728;SDS011;25402;42.004;23.088;2023-05-10T00:48:37;3.15;;;1.90;;
39728;SDS011;25402;42.004;23.088;2023-05-10T00:51:04;3.40;;;1.70;;
39728;SDS011;25402;42.004;23.088;2023-05-10T00:53:32;8.75;;;1.83;;
39728;SDS011;25402;42.004;23.088;2023-05-10T00:56:01;3.60;;;1.90;;
39728;SDS011;25402;42.004;23.088;2023-05-10T00:58:28;2.78;;;1.80;;
39728;SDS011;25402;42.004;23.088;2023-05-10T01:00:56;3.72;;;1.80;;
39728;SDS011;25402;42.004;23.088;2023-05-10T01:03:25;4.32;;;1.83;;
39728;SDS011;25402;42.004;23.088;2023-05-10T01:05:52;5.43;;;2.35;;
39728;SDS011;25402;42.004;23.088;2023-05-10T01:08:20;3.70;;;2.40;;
39728;SDS011;25402;42.004;23.088;2023-05-10T01:10:47;5.35;;;2.20;;
39728;SDS011;25402;42.004;23.088;2023-05-10T01:13:16;5.65;;;2.30;;
39728;SDS011;25402;42.004;23.088;2023-05-10T01:15:49;6.45;;;2.17;;
39728;SDS011;25402;42.004;23.088;2023-05-10T01:18:16;3.95;;;2.30;;
39728;SDS011;25402;42.004;23.088;2023-05-10T01:20:49;5.90;;;3.00;;
39728;SDS011;25402;42.004;23.088;2023-05-10T01:23:31;3.45;;;2.58;;
39728;SDS011;25402;42.004;23.088;2023-05-10T01:26:23;5.55;;;2.70;;
39728;SDS011;25402;42.004;23.088;2023-05-10T01:29:14;4.68;;;2.75;;
39728;SDS011;25402;42.004;23.088;2023-05-10T01:32:08;4.13;;;2.47;;
39728;SDS011;25402;42.004;23.088;2023-05-10T01:34:44;4.28;;;2.67;;
39728;SDS011;25402;42.004;23.088;2023-05-10T01:37:21;4.32;;;2.50;;
39728;SDS011;25402;42.004;23.088;2023-05-10T01:39:58;7.30;;;2.83;;
39728;SDS011;25402;42.004;23.088;2023-05-10T01:42:31;6.32;;;2.47;;
39728;SDS011;25402;42.004;23.088;2023-05-10T01:45:07;3.95;;;2.15;;
39728;SDS011;25402;42.004;23.088;2023-05-10T01:47:46;4.72;;;2.40;;
39728;SDS011;25402;42.004;23.088;2023-05-10T01:50:22;2.60;;;2.20;;
39728;SDS011;25402;42.004;23.088;2023-05-10T01:52:55;4.90;;;2.33;;
39728;SDS011;25402;42.004;23.088;2023-05-10T01:55:25;3.17;;;1.98;;
39728;SDS011;25402;42.004;23.088;2023-05-10T01:57:58;3.88;;;2.28;;
39728;SDS011;25402;42.004;23.088;2023-05-10T02:00:30;4.18;;;2.40;;
39728;SDS011;25402;42.004;23.088;2023-05-10T02:03:00;2.88;;;2.05;;
39728;SDS011;25402;42.004;23.088;2023-05-10T02:05:31;3.88;;;2.03;;
39728;SDS011;25402;42.004;23.088;2023-05-10T02:08:01;2.33;;;2.13;;
39728;SDS011;25402;42.004;23.088;2023-05-10T02:10:32;5.63;;;2.33;;
39728;SDS011;25402;42.004;23.088;2023-05-10T02:12:59;2.55;;;2.22;;
39728;SDS011;25402;42.004;23.088;2023-05-10T02:15:28;4.43;;;2.65;;
39728;SDS011;25402;42.004;23.088;2023-05-10T02:17:56;3.03;;;2.40;;
39728;SDS011;25402;42.004;23.088;2023-05-10T02:20:27;3.00;;;2.70;;
39728;SDS011;25402;42.004;23.088;2023-05-10T02:22:56;9.55;;;2.85;;
39728;SDS011;25402;42.004;23.088;2023-05-10T02:25:24;3.80;;;2.95;;
39728;SDS011;25402;42.004;23.088;2023-05-10T02:27:53;3.75;;;2.80;;
39728;SDS011;25402;42.004;23.088;2023-05-10T02:30:22;7.22;;;3.28;;
39728;SDS011;25402;42.004;23.088;2023-05-10T02:32:50;3.67;;;3.22;;
39728;SDS011;25402;42.004;23.088;2023-05-10T02:35:17;5.57;;;3.15;;
39728;SDS011;25402;42.004;23.088;2023-05-10T02:37:47;4.20;;;3.00;;
39728;SDS011;25402;42.004;23.088;2023-05-10T02:40:14;5.75;;;3.40;;
39728;SDS011;25402;42.004;23.088;2023-05-10T02:42:43;4.50;;;3.35;;
39728;SDS011;25402;42.004;23.088;2023-05-10T02:45:14;5.25;;;3.40;;
39728;SDS011;25402;42.004;23.088;2023-05-10T02:47:48;4.93;;;3.40;;
39728;SDS011;25402;42.004;23.088;2023-05-10T02:50:16;8.02;;;3.58;;
39728;SDS011;25402;42.004;23.088;2023-05-10T02:52:44;8.40;;;4.63;;
39728;SDS011;25402;42.004;23.088;2023-05-10T02:55:19;9.93;;;4.15;;
39728;SDS011;25402;42.004;23.088;2023-05-10T02:57:52;15.20;;;8.13;;
39728;SDS011;25402;42.004;23.088;2023-05-10T03:00:24;4.18;;;3.50;;
39728;SDS011;25402;42.004;23.088;2023-05-10T03:02:51;3.80;;;3.30;;
39728;SDS011;25402;42.004;23.088;2023-05-10T03:05:19;6.72;;;3.50;;
39728;SDS011;25402;42.004;23.088;2023-05-10T03:07:46;5.28;;;3.13;;
39728;SDS011;25402;42.004;23.088;2023-05-10T03:10:14;4.57;;;3.20;;
39728;SDS011;25402;42.004;23.088;2023-05-10T03:12:47;5.65;;;3.58;;
39728;SDS011;25402;42.004;23.088;2023-05-10T03:15:25;3.88;;;3.47;;
39728;SDS011;25402;42.004;23.088;2023-05-10T03:18:04;4.63;;;3.20;;
39728;SDS011;25402;42.004;23.088;2023-05-10T03:20:35;3.63;;;3.15;;
39728;SDS011;25402;42.004;23.088;2023-05-10T03:23:07;3.55;;;3.08;;
39728;SDS011;25402;42.004;23.088;2023-05-10T03:25:39;5.28;;;3.50;;
39728;SDS011;25402;42.004;23.088;2023-05-10T03:28:08;4.80;;;3.38;;
39728;SDS011;25402;42.004;23.088;2023-05-10T03:30:36;3.97;;;3.22;;
39728;SDS011;25402;42.004;23.088;2023-05-10T03:33:05;6.38;;;3.25;;
39728;SDS011;25402;42.004;23.088;2023-05-10T03:35:32;4.10;;;3.70;;
39728;SDS011;25402;42.004;23.088;2023-05-10T03:37:59;7.22;;;4.05;;
39728;SDS011;25402;42.004;23.088;2023-05-10T03:40:28;4.70;;;3.78;;
39728;SDS011;25402;42.004;23.088;2023-05-10T03:42:56;4.57;;;3.95;;
39728;SDS011;25402;42.004;23.088;2023-05-10T03:45:23;7.35;;;4.00;;
39728;SDS011;25402;42.004;23.088;2023-05-10T03:47:50;6.60;;;3.90;;
39728;SDS011;25402;42.004;23.088;2023-05-10T03:50:17;5.28;;;3.95;;
39728;SDS011;25402;42.004;23.088;2023-05-10T03:52:44;7.10;;;4.60;;
39728;SDS011;25402;42.004;23.088;2023-05-10T03:55:11;9.23;;;4.60;;
39728;SDS011;25402;42.004;23.088;2023-05-10T03:57:39;10.75;;;4.82;;
39728;SDS011;25402;42.004;23.088;2023-05-10T04:00:07;12.43;;;4.93;;
39728;SDS011;25402;42.004;23.088;2023-05-10T04:02:35;16.25;;;5.18;;
39728;SDS011;25402;42.004;23.088;2023-05-10T04:05:01;11.77;;;5.57;;
39728;SDS011;25402;42.004;23.088;2023-05-10T04:07:28;11.98;;;5.55;;
39728;SDS011;25402;42.004;23.088;2023-05-10T04:09:55;9.43;;;4.60;;
39728;SDS011;25402;42.004;23.088;2023-05-10T04:12:22;9.50;;;4.70;;
39728;SDS011;25402;42.004;23.088;2023-05-10T04:14:50;6.95;;;4.50;;
39728;SDS011;25402;42.004;23.088;2023-05-10T04:17:17;10.48;;;4.30;;
39728;SDS011;25402;42.004;23.088;2023-05-10T04:19:44;7.43;;;3.95;;
39728;SDS011;25402;42.004;23.088;2023-05-10T04:22:11;10.05;;;4.07;;
39728;SDS011;25402;42.004;23.088;2023-05-10T04:24:38;5.35;;;3.65;;
39728;SDS011;25402;42.004;23.088;2023-05-10T04:27:04;6.80;;;3.83;;
39728;SDS011;25402;42.004;23.088;2023-05-10T04:29:31;6.03;;;3.97;;
39728;SDS011;25402;42.004;23.088;2023-05-10T04:32:00;8.35;;;3.88;;
39728;SDS011;25402;42.004;23.088;2023-05-10T04:34:28;4.68;;;3.30;;
39728;SDS011;25402;42.004;23.088;2023-05-10T04:36:55;5.05;;;3.65;;
39728;SDS011;25402;42.004;23.088;2023-05-10T04:39:22;7.13;;;5.35;;
39728;SDS011;25402;42.004;23.088;2023-05-10T04:41:49;13.15;;;6.68;;
39728;SDS011;25402;42.004;23.088;2023-05-10T04:44:17;6.10;;;3.92;;
39728;SDS011;25402;42.004;23.088;2023-05-10T04:46:44;9.27;;;5.50;;
39728;SDS011;25402;42.004;23.088;2023-05-10T04:49:13;9.75;;;5.53;;
39728;SDS011;25402;42.004;23.088;2023-05-10T04:51:40;7.25;;;5.38;;
39728;SDS011;25402;42.004;23.088;2023-05-10T04:54:06;6.65;;;4.72;;
39728;SDS011;25402;42.004;23.088;2023-05-10T04:56:34;8.75;;;6.63;;
39728;SDS011;25402;42.004;23.088;2023-05-10T04:59:00;10.27;;;5.40;;
39728;SDS011;25402;42.004;23.088;2023-05-10T05:01:31;9.38;;;5.22;;
39728;SDS011;25402;42.004;23.088;2023-05-10T05:03:58;13.88;;;5.78;;
39728;SDS011;25402;42.004;23.088;2023-05-10T05:06:27;8.45;;;4.63;;
39728;SDS011;25402;42.004;23.088;2023-05-10T05:08:56;10.10;;;5.57;;
39728;SDS011;25402;42.004;23.088;2023-05-10T05:11:24;9.77;;;5.72;;
39728;SDS011;25402;42.004;23.088;2023-05-10T05:13:51;11.32;;;5.88;;
39728;SDS011;25402;42.004;23.088;2023-05-10T05:16:18;10.70;;;4.97;;
39728;SDS011;25402;42.004;23.088;2023-05-10T05:18:52;9.38;;;5.28;;
39728;SDS011;25402;42.004;23.088;2023-05-10T05:21:19;6.85;;;4.80;;
39728;SDS011;25402;42.004;23.088;2023-05-10T05:23:48;12.73;;;4.28;;
39728;SDS011;25402;42.004;23.088;2023-05-10T05:26:15;9.52;;;4.70;;
39728;SDS011;25402;42.004;23.088;2023-05-10T05:28:42;7.80;;;4.63;;
39728;SDS011;25402;42.004;23.088;2023-05-10T05:31:09;14.60;;;5.13;;
39728;SDS011;25402;42.004;23.088;2023-05-10T05:33:37;8.68;;;4.38;;
39728;SDS011;25402;42.004;23.088;2023-05-10T05:36:05;5.85;;;4.57;;
39728;SDS011;25402;42.004;23.088;2023-05-10T05:38:32;8.98;;;5.38;;
39728;SDS011;25402;42.004;23.088;2023-05-10T05:41:02;7.38;;;5.10;;
39728;SDS011;25402;42.004;23.088;2023-05-10T05:43:29;7.90;;;5.32;;
39728;SDS011;25402;42.004;23.088;2023-05-10T05:45:57;5.60;;;4.05;;
39728;SDS011;25402;42.004;23.088;2023-05-10T05:48:24;9.52;;;4.95;;
39728;SDS011;25402;42.004;23.088;2023-05-10T05:50:53;7.78;;;4.63;;
39728;SDS011;25402;42.004;23.088;2023-05-10T05:53:21;6.28;;;4.40;;
39728;SDS011;25402;42.004;23.088;2023-05-10T05:55:52;9.40;;;4.30;;
39728;SDS011;25402;42.004;23.088;2023-05-10T05:58:22;5.68;;;4.05;;
39728;SDS011;25402;42.004;23.088;2023-05-10T06:00:49;13.13;;;4.55;;
39728;SDS011;25402;42.004;23.088;2023-05-10T06:03:18;7.18;;;4.50;;
39728;SDS011;25402;42.004;23.088;2023-05-10T06:05:49;6.45;;;4.22;;
39728;SDS011;25402;42.004;23.088;2023-05-10T06:08:16;11.93;;;3.95;;
39728;SDS011;25402;42.004;23.088;2023-05-10T06:10:48;7.50;;;3.80;;
39728;SDS011;25402;42.004;23.088;2023-05-10T06:13:15;5.70;;;4.18;;
39728;SDS011;25402;42.004;23.088;2023-05-10T06:15:43;8.93;;;3.88;;
39728;SDS011;25402;42.004;23.088;2023-05-10T06:18:10;5.32;;;3.85;;
39728;SDS011;25402;42.004;23.088;2023-05-10T06:20:38;9.68;;;4.43;;
39728;SDS011;25402;42.004;23.088;2023-05-10T06:23:05;6.15;;;4.38;;
39728;SDS011;25402;42.004;23.088;2023-05-10T06:25:32;6.32;;;4.05;;
39728;SDS011;25402;42.004;23.088;2023-05-10T06:27:59;7.70;;;4.30;;
39728;SDS011;25402;42.004;23.088;2023-05-10T06:30:26;10.40;;;3.95;;
39728;SDS011;25402;42.004;23.088;2023-05-10T06:32:55;5.43;;;4.05;;
39728;SDS011;25402;42.004;23.088;2023-05-10T06:35:24;6.65;;;4.63;;
39728;SDS011;25402;42.004;23.088;2023-05-10T06:37:52;10.05;;;5.03;;
39728;SDS011;25402;42.004;23.088;2023-05-10T06:40:20;7.88;;;5.35;;
39728;SDS011;25402;42.004;23.088;2023-05-10T06:42:50;8.07;;;5.35;;
39728;SDS011;25402;42.004;23.088;2023-05-10T06:45:18;7.18;;;5.63;;
39728;SDS011;25402;42.004;23.088;2023-05-10T06:47:45;8.88;;;5.50;;
39728;SDS011;25402;42.004;23.088;2023-05-10T06:50:28;17.13;;;10.00;;
39728;SDS011;25402;42.004;23.088;2023-05-10T06:52:56;13.43;;;7.10;;
39728;SDS011;25402;42.004;23.088;2023-05-10T06:55:23;10.38;;;6.90;;
39728;SDS011;25402;42.004;23.088;2023-05-10T06:58:03;6.90;;;5.30;;
39728;SDS011;25402;42.004;23.088;2023-05-10T07:00:48;8.88;;;5.55;;
39728;SDS011;25402;42.004;23.088;2023-05-10T07:03:16;6.40;;;5.15;;
39728;SDS011;25402;42.004;23.088;2023-05-10T07:05:45;8.73;;;5.68;;
39728;SDS011;25402;42.004;23.088;2023-05-10T07:09:09;9.63;;;6.65;;
39728;SDS011;25402;42.004;23.088;2023-05-10T07:11:36;28.45;;;14.15;;
39728;SDS011;25402;42.004;23.088;2023-05-10T07:14:17;10.13;;;6.80;;
39728;SDS011;25402;42.004;23.088;2023-05-10T07:16:57;18.90;;;10.32;;
39728;SDS011;25402;42.004;23.088;2023-05-10T07:19:25;12.90;;;6.95;;
39728;SDS011;25402;42.004;23.088;2023-05-10T07:21:54;12.00;;;6.40;;
39728;SDS011;25402;42.004;23.088;2023-05-10T07:24:20;11.70;;;6.95;;
39728;SDS011;25402;42.004;23.088;2023-05-10T07:27:01;10.60;;;6.07;;
39728;SDS011;25402;42.004;23.088;2023-05-10T07:29:46;9.82;;;6.45;;
39728;SDS011;25402;42.004;23.088;2023-05-10T07:32:26;11.02;;;5.75;;
39728;SDS011;25402;42.004;23.088;2023-05-10T07:34:53;7.88;;;5.30;;
39728;SDS011;25402;42.004;23.088;2023-05-10T07:37:35;8.20;;;5.40;;
39728;SDS011;25402;42.004;23.088;2023-05-10T07:40:02;9.45;;;5.82;;
39728;SDS011;25402;42.004;23.088;2023-05-10T07:42:44;11.55;;;7.07;;
39728;SDS011;25402;42.004;23.088;2023-05-10T07:45:11;8.38;;;4.75;;
39728;SDS011;25402;42.004;23.088;2023-05-10T07:47:56;12.77;;;5.55;;
39728;SDS011;25402;42.004;23.088;2023-05-10T07:50:23;8.70;;;6.00;;
39728;SDS011;25402;42.004;23.088;2023-05-10T07:53:05;9.10;;;5.82;;
39728;SDS011;25402;42.004;23.088;2023-05-10T07:56:20;9.98;;;5.40;;
39728;SDS011;25402;42.004;23.088;2023-05-10T07:58:48;10.98;;;6.60;;
39728;SDS011;25402;42.004;23.088;2023-05-10T08:01:15;10.63;;;5.53;;
39728;SDS011;25402;42.004;23.088;2023-05-10T08:03:42;8.98;;;6.10;;
39728;SDS011;25402;42.004;23.088;2023-05-10T08:06:12;11.40;;;6.45;;
39728;SDS011;25402;42.004;23.088;2023-05-10T08:08:40;21.50;;;9.10;;
39728;SDS011;25402;42.004;23.088;2023-05-10T08:11:07;22.42;;;10.18;;
39728;SDS011;25402;42.004;23.088;2023-05-10T08:13:34;9.27;;;6.13;;
39728;SDS011;25402;42.004;23.088;2023-05-10T08:16:01;11.63;;;6.47;;
39728;SDS011;25402;42.004;23.088;2023-05-10T08:18:28;11.00;;;6.78;;
39728;SDS011;25402;42.004;23.088;2023-05-10T08:21:09;10.27;;;6.70;;
39728;SDS011;25402;42.004;23.088;2023-05-10T08:23:37;11.68;;;6.40;;
39728;SDS011;25402;42.004;23.088;2023-05-10T08:26:05;9.88;;;6.13;;
39728;SDS011;25402;42.004;23.088;2023-05-10T08:28:46;15.30;;;5.90;;
39728;SDS011;25402;42.004;23.088;2023-05-10T08:31:13;12.07;;;5.97;;
39728;SDS011;25402;42.004;23.088;2023-05-10T08:33:55;9.98;;;6.68;;
39728;SDS011;25402;42.004;23.088;2023-05-10T08:36:25;7.38;;;6.05;;
39728;SDS011;25402;42.004;23.088;2023-05-10T08:38:53;9.95;;;5.72;;
39728;SDS011;25402;42.004;23.088;2023-05-10T08:41:22;8.55;;;6.03;;
39728;SDS011;25402;42.004;23.088;2023-05-10T08:43:50;7.30;;;5.55;;
39728;SDS011;25402;42.004;23.088;2023-05-10T08:46:19;8.82;;;5.60;;
39728;SDS011;25402;42.004;23.088;2023-05-10T08:49:13;10.65;;;5.20;;
39728;SDS011;25402;42.004;23.088;2023-05-10T08:51:47;9.65;;;6.43;;
39728;SDS011;25402;42.004;23.088;2023-05-10T08:54:18;10.35;;;6.70;;
39728;SDS011;25402;42.004;23.088;2023-05-10T08:57:17;10.43;;;5.95;;
39728;SDS011;25402;42.004;23.088;2023-05-10T08:59:46;8.63;;;6.03;;
39728;SDS011;25402;42.004;23.088;2023-05-10T09:05:31;11.45;;;5.30;;
39728;SDS011;25402;42.004;23.088;2023-05-10T09:08:07;10.23;;;6.40;;
39728;SDS011;25402;42.004;23.088;2023-05-10T09:10:35;8.27;;;5.93;;
39728;SDS011;25402;42.004;23.088;2023-05-10T09:13:26;28.30;;;15.45;;
39728;SDS011;25402;42.004;23.088;2023-05-10T09:15:55;10.10;;;5.70;;
39728;SDS011;25402;42.004;23.088;2023-05-10T09:18:30;11.07;;;5.63;;
39728;SDS011;25402;42.004;23.088;2023-05-10T09:20:57;9.32;;;5.95;;
39728;SDS011;25402;42.004;23.088;2023-05-10T09:23:25;10.93;;;7.00;;
39728;SDS011;25402;42.004;23.088;2023-05-10T09:26:03;8.88;;;5.90;;
39728;SDS011;25402;42.004;23.088;2023-05-10T09:31:46;9.88;;;6.47;;
39728;SDS011;25402;42.004;23.088;2023-05-10T09:34:18;11.80;;;6.68;;
39728;SDS011;25402;42.004;23.088;2023-05-10T09:36:59;9.35;;;6.53;;
39728;SDS011;25402;42.004;23.088;2023-05-10T09:39:31;10.60;;;7.28;;
39728;SDS011;25402;42.004;23.088;2023-05-10T09:41:59;12.38;;;7.95;;
39728;SDS011;25402;42.004;23.088;2023-05-10T09:45:04;9.60;;;7.32;;
39728;SDS011;25402;42.004;23.088;2023-05-10T09:47:35;8.65;;;6.57;;
39728;SDS011;25402;42.004;23.088;2023-05-10T09:50:16;9.48;;;5.85;;
39728;SDS011;25402;42.004;23.088;2023-05-10T09:52:46;7.18;;;5.25;;
39728;SDS011;25402;42.004;23.088;2023-05-10T09:55:15;7.72;;;5.55;;
39728;SDS011;25402;42.004;23.088;2023-05-10T09:57:44;8.93;;;5.72;;
39728;SDS011;25402;42.004;23.088;2023-05-10T10:00:17;6.22;;;4.75;;
39728;SDS011;25402;42.004;23.088;2023-05-10T10:03:00;8.38;;;5.03;;
39728;SDS011;25402;42.004;23.088;2023-05-10T10:05:56;8.48;;;5.60;;
39728;SDS011;25402;42.004;23.088;2023-05-10T10:08:23;8.60;;;5.03;;
39728;SDS011;25402;42.004;23.088;2023-05-10T10:10:51;4.88;;;4.10;;
39728;SDS011;25402;42.004;23.088;2023-05-10T10:13:33;6.68;;;4.20;;
39728;SDS011;25402;42.004;23.088;2023-05-10T10:16:01;6.25;;;4.20;;
39728;SDS011;25402;42.004;23.088;2023-05-10T10:18:31;5.85;;;4.78;;
39728;SDS011;25402;42.004;23.088;2023-05-10T10:21:00;8.68;;;4.65;;
39728;SDS011;25402;42.004;23.088;2023-05-10T10:23:28;4.38;;;3.97;;
39728;SDS011;25402;42.004;23.088;2023-05-10T10:25:57;5.78;;;4.13;;
39728;SDS011;25402;42.004;23.088;2023-05-10T10:28:30;4.68;;;4.05;;
39728;SDS011;25402;42.004;23.088;2023-05-10T10:31:12;6.00;;;4.15;;
39728;SDS011;25402;42.004;23.088;2023-05-10T10:33:53;6.43;;;4.50;;
39728;SDS011;25402;42.004;23.088;2023-05-10T10:36:28;8.15;;;4.57;;
39728;SDS011;25402;42.004;23.088;2023-05-10T10:38:58;8.88;;;4.38;;
39728;SDS011;25402;42.004;23.088;2023-05-10T10:41:29;8.35;;;4.32;;
39728;SDS011;25402;42.004;23.088;2023-05-10T10:47:22;4.38;;;3.67;;
39728;SDS011;25402;42.004;23.088;2023-05-10T10:50:01;8.07;;;4.20;;
39728;SDS011;25402;42.004;23.088;2023-05-10T10:52:31;5.85;;;4.07;;
39728;SDS011;25402;42.004;23.088;2023-05-10T10:55:13;11.03;;;4.57;;
39728;SDS011;25402;42.004;23.088;2023-05-10T10:57:47;8.82;;;4.38;;
39728;SDS011;25402;42.004;23.088;2023-05-10T11:00:29;6.18;;;4.38;;
39728;SDS011;25402;42.004;23.088;2023-05-10T11:02:59;6.40;;;4.50;;
39728;SDS011;25402;42.004;23.088;2023-05-10T11:05:36;10.13;;;4.22;;
39728;SDS011;25402;42.004;23.088;2023-05-10T11:08:06;5.25;;;3.95;;
39728;SDS011;25402;42.004;23.088;2023-05-10T11:10:50;9.38;;;4.40;;
39728;SDS011;25402;42.004;23.088;2023-05-10T11:13:33;7.70;;;3.90;;
39728;SDS011;25402;42.004;23.088;2023-05-10T11:16:14;6.68;;;4.07;;
39728;SDS011;25402;42.004;23.088;2023-05-10T11:19:16;7.68;;;4.43;;
39728;SDS011;25402;42.004;23.088;2023-05-10T11:21:47;7.78;;;5.43;;
39728;SDS011;25402;42.004;23.088;2023-05-10T11:24:16;10.63;;;6.82;;
39728;SDS011;25402;42.004;23.088;2023-05-10T11:26:46;11.23;;;4.82;;
39728;SDS011;25402;42.004;23.088;2023-05-10T11:29:27;11.98;;;5.07;;
39728;SDS011;25402;42.004;23.088;2023-05-10T11:31:56;5.80;;;4.22;;
39728;SDS011;25402;42.004;23.088;2023-05-10T11:34:26;9.27;;;4.47;;
39728;SDS011;25402;42.004;23.088;2023-05-10T11:37:00;5.13;;;3.40;;
39728;SDS011;25402;42.004;23.088;2023-05-10T11:39:51;4.47;;;3.85;;
39728;SDS011;25402;42.004;23.088;2023-05-10T11:42:21;7.63;;;3.60;;
39728;SDS011;25402;42.004;23.088;2023-05-10T11:44:48;7.05;;;3.53;;
39728;SDS011;25402;42.004;23.088;2023-05-10T11:47:15;3.80;;;3.40;;
39728;SDS011;25402;42.004;23.088;2023-05-10T11:49:56;8.93;;;4.63;;
39728;SDS011;25402;42.004;23.088;2023-05-10T11:52:27;4.47;;;3.75;;
39728;SDS011;25402;42.004;23.088;2023-05-10T11:54:54;5.07;;;3.80;;
39728;SDS011;25402;42.004;23.088;2023-05-10T11:57:25;5.72;;;3.58;;
39728;SDS011;25402;42.004;23.088;2023-05-10T11:59:53;4.47;;;3.65;;
39728;SDS011;25402;42.004;23.088;2023-05-10T12:02:21;10.15;;;6.43;;
39728;SDS011;25402;42.004;23.088;2023-05-10T12:04:49;14.80;;;11.15;;
39728;SDS011;25402;42.004;23.088;2023-05-10T12:07:36;31.17;;;19.42;;
39728;SDS011;25402;42.004;23.088;2023-05-10T12:10:24;16.95;;;11.18;;
39728;SDS011;25402;42.004;23.088;2023-05-10T12:12:53;18.63;;;10.68;;
39728;SDS011;25402;42.004;23.088;2023-05-10T12:15:21;10.27;;;6.50;;
39728;SDS011;25402;42.004;23.088;2023-05-10T12:18:22;15.25;;;7.60;;
39728;SDS011;25402;42.004;23.088;2023-05-10T12:21:11;11.55;;;4.53;;
39728;SDS011;25402;42.004;23.088;2023-05-10T12:24:22;6.07;;;4.30;;
39728;SDS011;25402;42.004;23.088;2023-05-10T12:27:53;7.20;;;4.82;;
39728;SDS011;25402;42.004;23.088;2023-05-10T12:31:01;5.00;;;3.83;;
39728;SDS011;25402;42.004;23.088;2023-05-10T12:33:43;5.35;;;3.33;;
39728;SDS011;25402;42.004;23.088;2023-05-10T12:36:13;3.63;;;2.78;;
39728;SDS011;25402;42.004;23.088;2023-05-10T12:39:18;6.70;;;3.67;;
39728;SDS011;25402;42.004;23.088;2023-05-10T12:41:47;3.63;;;2.58;;
39728;SDS011;25402;42.004;23.088;2023-05-10T12:44:28;5.65;;;3.78;;
39728;SDS011;25402;42.004;23.088;2023-05-10T12:47:08;3.95;;;3.10;;
39728;SDS011;25402;42.004;23.088;2023-05-10T12:49:49;4.38;;;3.38;;
39728;SDS011;25402;42.004;23.088;2023-05-10T12:52:30;9.18;;;3.30;;
39728;SDS011;25402;42.004;23.088;2023-05-10T12:55:39;6.68;;;2.90;;
39728;SDS011;25402;42.004;23.088;2023-05-10T12:58:07;4.53;;;3.10;;
39728;SDS011;25402;42.004;23.088;2023-05-10T13:00:37;3.35;;;2.30;;
39728;SDS011;25402;42.004;23.088;2023-05-10T13:03:04;3.83;;;2.60;;
39728;SDS011;25402;42.004;23.088;2023-05-10T13:05:32;3.25;;;2.92;;
39728;SDS011;25402;42.004;23.088;2023-05-10T13:08:13;5.32;;;2.90;;
39728;SDS011;25402;42.004;23.088;2023-05-10T13:10:44;3.72;;;2.40;;
39728;SDS011;25402;42.004;23.088;2023-05-10T13:15:59;4.03;;;2.70;;
39728;SDS011;25402;42.004;23.088;2023-05-10T13:19:09;4.50;;;2.78;;
39728;SDS011;25402;42.004;23.088;2023-05-10T13:21:36;4.45;;;2.60;;
39728;SDS011;25402;42.004;23.088;2023-05-10T13:24:17;6.90;;;1.83;;
39728;SDS011;25402;42.004;23.088;2023-05-10T13:26:59;2.15;;;1.70;;
39728;SDS011;25402;42.004;23.088;2023-05-10T13:29:26;4.50;;;1.60;;
39728;SDS011;25402;42.004;23.088;2023-05-10T13:32:07;2.30;;;1.63;;
39728;SDS011;25402;42.004;23.088;2023-05-10T13:34:47;3.45;;;2.05;;
39728;SDS011;25402;42.004;23.088;2023-05-10T13:37:18;3.45;;;2.03;;
39728;SDS011;25402;42.004;23.088;2023-05-10T13:39:48;3.17;;;1.73;;
39728;SDS011;25402;42.004;23.088;2023-05-10T13:42:31;2.85;;;2.00;;
39728;SDS011;25402;42.004;23.088;2023-05-10T13:44:59;4.22;;;2.40;;
39728;SDS011;25402;42.004;23.088;2023-05-10T13:48:01;5.55;;;1.90;;
39728;SDS011;25402;42.004;23.088;2023-05-10T13:50:32;3.38;;;1.80;;
39728;SDS011;25402;42.004;23.088;2023-05-10T13:52:59;4.05;;;2.05;;
39728;SDS011;25402;42.004;23.088;2023-05-10T13:55:26;4.15;;;2.60;;
39728;SDS011;25402;42.004;23.088;2023-05-10T13:57:55;3.45;;;2.28;;
39728;SDS011;25402;42.004;23.088;2023-05-10T14:00:22;7.05;;;1.80;;
39728;SDS011;25402;42.004;23.088;2023-05-10T14:03:03;5.53;;;2.70;;
39728;SDS011;25402;42.004;23.088;2023-05-10T14:05:31;6.38;;;4.10;;
39728;SDS011;25402;42.004;23.088;2023-05-10T14:08:12;6.93;;;4.63;;
39728;SDS011;25402;42.004;23.088;2023-05-10T14:10:39;10.82;;;5.35;;
39728;SDS011;25402;42.004;23.088;2023-05-10T14:13:08;9.20;;;3.10;;
39728;SDS011;25402;42.004;23.088;2023-05-10T14:15:35;5.65;;;2.90;;
39728;SDS011;25402;42.004;23.088;2023-05-10T14:18:02;5.55;;;2.85;;
39728;SDS011;25402;42.004;23.088;2023-05-10T14:20:29;7.63;;;2.60;;
39728;SDS011;25402;42.004;23.088;2023-05-10T14:22:57;4.28;;;2.85;;
39728;SDS011;25402;42.004;23.088;2023-05-10T14:25:24;3.67;;;2.20;;
39728;SDS011;25402;42.004;23.088;2023-05-10T14:27:51;4.53;;;2.70;;
39728;SDS011;25402;42.004;23.088;2023-05-10T14:30:21;31.05;;;4.13;;
39728;SDS011;25402;42.004;23.088;2023-05-10T14:32:48;9.55;;;3.30;;
39728;SDS011;25402;42.004;23.088;2023-05-10T14:35:15;9.75;;;1.95;;
39728;SDS011;25402;42.004;23.088;2023-05-10T14:37:55;7.10;;;3.78;;
39728;SDS011;25402;42.004;23.088;2023-05-10T14:40:36;4.93;;;2.10;;
39728;SDS011;25402;42.004;23.088;2023-05-10T14:43:03;5.57;;;1.92;;
39728;SDS011;25402;42.004;23.088;2023-05-10T14:45:32;6.55;;;1.80;;
39728;SDS011;25402;42.004;23.088;2023-05-10T14:48:16;3.58;;;2.05;;
39728;SDS011;25402;42.004;23.088;2023-05-10T14:50:43;2.45;;;2.00;;
39728;SDS011;25402;42.004;23.088;2023-05-10T14:53:24;3.13;;;1.90;;
39728;SDS011;25402;42.004;23.088;2023-05-10T14:56:04;2.97;;;1.65;;
39728;SDS011;25402;42.004;23.088;2023-05-10T14:59:28;5.20;;;2.90;;
39728;SDS011;25402;42.004;23.088;2023-05-10T15:02:14;4.72;;;2.20;;
39728;SDS011;25402;42.004;23.088;2023-05-10T15:04:41;13.18;;;6.15;;
39728;SDS011;25402;42.004;23.088;2023-05-10T15:07:22;9.95;;;6.47;;
39728;SDS011;25402;42.004;23.088;2023-05-10T15:09:49;6.22;;;4.45;;
39728;SDS011;25402;42.004;23.088;2023-05-10T15:12:17;7.60;;;4.68;;
39728;SDS011;25402;42.004;23.088;2023-05-10T15:14:44;6.25;;;4.65;;
39728;SDS011;25402;42.004;23.088;2023-05-10T15:17:11;9.60;;;5.50;;